Terminal Aerodrome Forecast
Issued by NWS

Home | Current Version | Previous Version | Text Only | Print | Product List | Glossary On
Versions: 1 2 3 4 5 6 7 8 9 10 11 12 13 14
000
FTUS45 KPSR 291732
TAFIPL
TAF
KIPL 291732Z 2918/3018 14010G18KT P6SM VCTS SCT100CB BKN150 BKN200
      TEMPO 2918/2919 VRB10G20KT 6SM TSRA BKN090CB
     FM292100 12015G20KT P6SM SCT100 SCT150 BKN250
     FM300000 14008KT P6SM VCTS FEW090CB SCT120 BKN200=

USA.gov is the U.S. government's official web portal to all federal, state and local government web resources and services.